createdAt,value
2023-01-30T00:01:46.860Z,13.13
2023-01-30T00:04:16.160Z,15.03
2023-01-30T00:06:43.863Z,23.27
2023-01-30T00:09:15.057Z,28.13
2023-01-30T00:11:42.630Z,24.43
2023-01-30T00:14:09.459Z,18.33
2023-01-30T00:16:36.377Z,17.30
2023-01-30T00:19:03.231Z,18.10
2023-01-30T00:21:30.183Z,18.77
2023-01-30T00:23:56.835Z,18.40
2023-01-30T00:26:23.489Z,25.90
2023-01-30T00:28:50.618Z,23.00
2023-01-30T00:31:17.309Z,27.27
2023-01-30T00:33:44.210Z,28.73
2023-01-30T00:36:11.269Z,27.63
2023-01-30T00:38:37.996Z,29.50
2023-01-30T00:41:05.243Z,18.97
2023-01-30T00:43:50.826Z,16.73
2023-01-30T00:46:51.972Z,15.57
2023-01-30T00:49:19.044Z,16.87
2023-01-30T00:51:46.673Z,14.97
2023-01-30T00:54:13.460Z,19.10
2023-01-30T00:56:40.364Z,19.07
2023-01-30T00:59:07.092Z,17.17
2023-01-30T01:01:34.480Z,19.53
2023-01-30T01:04:01.231Z,15.13
2023-01-30T01:06:27.919Z,15.33
2023-01-30T01:08:54.714Z,13.10
2023-01-30T01:11:24.743Z,17.87
2023-01-30T01:13:56.891Z,47.37
2023-01-30T01:16:24.956Z,18.00
2023-01-30T01:18:52.103Z,17.30
2023-01-30T01:21:20.379Z,21.47
2023-01-30T01:23:56.858Z,20.40
2023-01-30T01:26:24.088Z,16.77
2023-01-30T01:28:54.896Z,18.80
2023-01-30T01:31:22.372Z,18.73
2023-01-30T01:33:49.099Z,27.30
2023-01-30T01:36:29.388Z,23.97
2023-01-30T01:39:03.590Z,21.17
2023-01-30T01:41:30.740Z,28.17
2023-01-30T01:44:12.853Z,16.50
2023-01-30T01:46:53.592Z,13.67
2023-01-30T01:49:25.073Z,15.43
2023-01-30T01:52:03.962Z,16.40
2023-01-30T01:54:42.166Z,13.27
2023-01-30T01:57:15.465Z,18.77
2023-01-30T01:59:50.705Z,16.70
2023-01-30T02:02:17.516Z,16.07
2023-01-30T02:05:03.474Z,18.13
2023-01-30T02:07:36.471Z,21.53
2023-01-30T02:10:04.488Z,20.93
2023-01-30T02:12:31.549Z,18.90
2023-01-30T02:15:00.418Z,19.17
2023-01-30T02:17:27.369Z,17.27
2023-01-30T02:20:12.653Z,15.50
2023-01-30T02:23:09.967Z,29.60
2023-01-30T02:26:00.659Z,18.77
2023-01-30T02:28:50.493Z,17.20
2023-01-30T02:31:32.487Z,17.83
2023-01-30T02:34:35.722Z,25.20
2023-01-30T02:37:12.119Z,28.50
2023-01-30T02:39:53.806Z,25.63
2023-01-30T02:43:02.081Z,23.73
2023-01-30T02:45:36.702Z,17.30
2023-01-30T02:48:06.258Z,17.10
2023-01-30T02:50:59.046Z,17.10
2023-01-30T02:53:26.289Z,22.07
2023-01-30T02:55:53.063Z,22.80
2023-01-30T02:58:23.786Z,13.27
2023-01-30T03:01:16.525Z,13.43
2023-01-30T03:03:55.266Z,17.57
2023-01-30T03:06:34.736Z,20.43
2023-01-30T03:09:43.064Z,19.03
2023-01-30T03:12:15.978Z,22.37
2023-01-30T03:14:49.219Z,18.80
2023-01-30T03:17:18.585Z,20.50
2023-01-30T03:19:45.533Z,22.57
2023-01-30T03:22:12.186Z,25.17
2023-01-30T03:24:38.974Z,31.43
2023-01-30T03:27:12.963Z,26.93
2023-01-30T03:29:41.342Z,26.48
2023-01-30T03:32:08.113Z,23.07
2023-01-30T03:34:34.801Z,21.00
2023-01-30T03:37:01.724Z,22.33
2023-01-30T03:39:28.527Z,21.50
2023-01-30T03:41:55.354Z,18.53
2023-01-30T03:44:22.297Z,15.43
2023-01-30T03:46:49.112Z,18.10
2023-01-30T03:49:15.867Z,18.13
2023-01-30T03:51:42.634Z,27.67
2023-01-30T03:54:09.386Z,40.80
2023-01-30T03:56:36.039Z,19.97
2023-01-30T03:59:02.848Z,27.07
2023-01-30T04:01:29.542Z,28.77
2023-01-30T04:03:56.220Z,21.23
2023-01-30T04:06:22.900Z,19.23
2023-01-30T04:08:53.576Z,20.77
2023-01-30T04:11:21.198Z,20.17
2023-01-30T04:13:47.832Z,22.50
2023-01-30T04:16:20.234Z,22.07
2023-01-30T04:18:46.933Z,23.77
2023-01-30T04:21:14.112Z,30.00
2023-01-30T04:23:41.789Z,36.37
2023-01-30T04:26:09.013Z,37.07
2023-01-30T04:28:36.299Z,38.00
2023-01-30T04:31:03.451Z,48.17
2023-01-30T04:33:30.271Z,36.93
2023-01-30T04:36:00.123Z,38.13
2023-01-30T04:38:28.299Z,35.60
2023-01-30T04:40:56.599Z,37.50
2023-01-30T04:43:25.095Z,40.70
2023-01-30T04:45:52.259Z,47.50
2023-01-30T04:48:20.079Z,67.17
2023-01-30T04:50:48.918Z,72.13
2023-01-30T04:53:16.774Z,48.23
2023-01-30T04:55:43.745Z,51.97
2023-01-30T04:58:10.791Z,43.40
2023-01-30T05:00:37.649Z,46.03
2023-01-30T05:03:04.476Z,49.10
2023-01-30T05:05:31.132Z,51.53
2023-01-30T05:07:57.849Z,52.83
2023-01-30T05:10:24.623Z,43.10
2023-01-30T05:12:52.356Z,79.83
2023-01-30T05:15:19.356Z,77.23
2023-01-30T05:17:46.227Z,80.37
2023-01-30T05:20:14.184Z,88.17
2023-01-30T05:22:40.858Z,80.40
2023-01-30T05:25:07.969Z,83.53
2023-01-30T05:27:34.725Z,83.73
2023-01-30T05:30:01.501Z,84.83
2023-01-30T05:32:30.540Z,82.77
2023-01-30T05:34:57.424Z,90.93
2023-01-30T05:37:25.006Z,63.60
2023-01-30T05:39:51.965Z,58.80
2023-01-30T05:42:18.968Z,57.17
2023-01-30T05:44:46.153Z,61.47
2023-01-30T05:47:13.227Z,62.83
2023-01-30T05:49:40.027Z,77.60
2023-01-30T05:52:06.748Z,63.87
2023-01-30T05:54:35.256Z,47.03
2023-01-30T05:57:02.142Z,48.73
2023-01-30T05:59:28.837Z,43.97
2023-01-30T06:01:55.481Z,48.30
2023-01-30T06:04:22.310Z,76.43
2023-01-30T06:06:50.897Z,89.37
2023-01-30T06:09:17.758Z,83.37
2023-01-30T06:11:44.439Z,85.20
2023-01-30T06:14:11.330Z,109.03
2023-01-30T06:16:38.115Z,102.97
2023-01-30T06:19:04.802Z,86.83
2023-01-30T06:21:31.620Z,77.43
2023-01-30T06:23:58.610Z,77.77
2023-01-30T06:26:25.384Z,84.63
2023-01-30T06:28:52.158Z,77.70
2023-01-30T06:31:19.265Z,79.10
2023-01-30T06:33:46.125Z,94.30
2023-01-30T06:36:12.818Z,84.27
2023-01-30T06:38:39.504Z,81.90
2023-01-30T06:41:07.448Z,71.20
2023-01-30T06:43:34.121Z,77.53
2023-01-30T06:46:01.009Z,80.27
2023-01-30T06:48:27.846Z,78.60
2023-01-30T06:50:54.581Z,72.63
2023-01-30T06:53:22.567Z,98.97
2023-01-30T06:55:49.329Z,78.97
2023-01-30T06:58:16.036Z,77.43
2023-01-30T07:00:43.602Z,80.17
2023-01-30T07:03:15.326Z,79.93
2023-01-30T07:05:43.796Z,85.73
2023-01-30T07:08:11.072Z,70.20
2023-01-30T07:10:38.970Z,71.17
2023-01-30T07:13:06.815Z,61.27
2023-01-30T07:15:33.856Z,61.90
2023-01-30T07:18:02.327Z,60.23
2023-01-30T07:20:31.339Z,68.60
2023-01-30T07:22:58.165Z,70.03
2023-01-30T07:25:26.480Z,76.30
2023-01-30T07:28:01.451Z,70.33
2023-01-30T07:30:30.031Z,73.37
2023-01-30T07:32:58.480Z,87.37
2023-01-30T07:35:27.054Z,92.33
2023-01-30T07:37:53.881Z,114.23
2023-01-30T07:40:21.429Z,114.50
2023-01-30T07:43:02.695Z,102.70
2023-01-30T07:45:35.866Z,87.83
2023-01-30T07:48:02.951Z,72.83
2023-01-30T07:50:29.807Z,111.23
2023-01-30T07:52:56.546Z,99.80
2023-01-30T07:55:24.869Z,97.70
2023-01-30T07:57:51.509Z,91.50
2023-01-30T08:00:19.021Z,102.27
2023-01-30T08:02:45.926Z,87.07
2023-01-30T08:05:12.614Z,95.10
2023-01-30T08:07:39.223Z,79.70
2023-01-30T08:10:06.894Z,83.47
2023-01-30T08:12:33.561Z,91.93
2023-01-30T08:15:00.551Z,91.80
2023-01-30T08:17:27.346Z,91.67
2023-01-30T08:19:54.149Z,89.97
2023-01-30T08:22:20.934Z,82.33
2023-01-30T08:24:47.608Z,76.90
2023-01-30T08:27:14.296Z,51.93
2023-01-30T08:29:41.330Z,61.17
2023-01-30T08:32:08.035Z,44.27
2023-01-30T08:34:36.036Z,50.90
2023-01-30T08:37:03.524Z,48.90
2023-01-30T08:39:30.211Z,48.20
2023-01-30T08:41:57.228Z,37.77
2023-01-30T08:44:23.926Z,36.13
2023-01-30T08:46:50.611Z,38.57
2023-01-30T08:49:17.454Z,36.23
2023-01-30T08:51:44.307Z,28.03
2023-01-30T08:54:11.093Z,33.67
2023-01-30T08:56:37.809Z,35.07
2023-01-30T08:59:04.454Z,32.33
2023-01-30T09:01:31.318Z,42.93
2023-01-30T09:03:58.114Z,45.63
2023-01-30T09:06:26.273Z,41.93
2023-01-30T09:08:53.056Z,29.70
2023-01-30T09:11:19.805Z,33.13
2023-01-30T09:13:48.755Z,33.37
2023-01-30T09:16:16.442Z,42.07
2023-01-30T09:18:44.856Z,38.77
2023-01-30T09:21:13.294Z,36.83
2023-01-30T09:23:40.317Z,38.57
2023-01-30T09:26:09.336Z,38.73
2023-01-30T09:28:36.181Z,41.20
2023-01-30T09:31:03.885Z,36.53
2023-01-30T09:33:30.992Z,41.57
2023-01-30T09:35:57.753Z,28.20
2023-01-30T09:38:24.431Z,23.27
2023-01-30T09:41:00.106Z,30.00
2023-01-30T09:43:34.130Z,30.37
2023-01-30T09:46:13.034Z,22.58
2023-01-30T09:48:46.975Z,22.90
2023-01-30T09:51:32.521Z,24.77
2023-01-30T09:54:24.493Z,28.90
2023-01-30T09:57:24.881Z,46.73
2023-01-30T10:00:06.117Z,44.70
2023-01-30T10:02:47.699Z,41.67
2023-01-30T10:05:14.652Z,40.50
2023-01-30T10:07:56.729Z,47.33
2023-01-30T10:10:38.604Z,22.47
2023-01-30T10:13:11.160Z,24.67
2023-01-30T10:15:50.026Z,19.50
2023-01-30T10:18:51.566Z,26.90
2023-01-30T10:21:50.745Z,28.17
2023-01-30T10:25:15.674Z,35.57
2023-01-30T10:27:50.574Z,28.20
2023-01-30T10:30:18.485Z,27.33
2023-01-30T10:32:51.550Z,36.20
2023-01-30T10:35:30.171Z,21.20
2023-01-30T10:38:15.429Z,25.53
2023-01-30T10:40:50.823Z,26.20
2023-01-30T10:43:24.027Z,26.73
2023-01-30T10:45:55.804Z,29.33
2023-01-30T10:48:49.980Z,24.73
2023-01-30T10:51:25.319Z,29.75
2023-01-30T10:54:03.481Z,19.95
2023-01-30T10:56:48.878Z,22.27
2023-01-30T10:59:50.287Z,20.37
2023-01-30T11:02:26.274Z,20.37
2023-01-30T11:05:03.733Z,21.43
2023-01-30T11:07:32.177Z,22.87
2023-01-30T11:09:59.942Z,23.93
2023-01-30T11:12:27.417Z,22.73
2023-01-30T11:15:04.689Z,16.83
2023-01-30T11:17:37.596Z,24.60
2023-01-30T11:20:20.773Z,27.67
2023-01-30T11:22:52.443Z,20.63
2023-01-30T11:25:23.075Z,29.37
2023-01-30T11:28:05.678Z,27.47
2023-01-30T11:30:36.712Z,25.03
2023-01-30T11:33:17.083Z,50.13
2023-01-30T11:35:54.392Z,26.57
2023-01-30T11:38:25.726Z,20.87
2023-01-30T11:41:18.005Z,21.77
2023-01-30T11:43:44.911Z,25.03
2023-01-30T11:46:16.007Z,21.47
2023-01-30T11:49:02.971Z,22.30
2023-01-30T11:51:47.057Z,23.63
2023-01-30T11:54:20.243Z,19.67
2023-01-30T11:56:52.986Z,21.90
2023-01-30T11:59:31.899Z,45.80
2023-01-30T12:02:35.801Z,28.17
2023-01-30T12:05:06.304Z,34.30
2023-01-30T12:07:35.612Z,24.10
2023-01-30T12:10:26.332Z,35.10
2023-01-30T12:12:55.323Z,24.97
2023-01-30T12:15:35.301Z,22.70
2023-01-30T12:18:01.915Z,31.10
2023-01-30T12:20:55.761Z,67.73
2023-01-30T12:23:52.685Z,31.30
2023-01-30T12:26:37.941Z,22.80
2023-01-30T12:29:55.249Z,21.70
2023-01-30T12:32:26.453Z,36.40
2023-01-30T12:34:53.296Z,30.40
2023-01-30T12:37:35.495Z,38.73
2023-01-30T12:40:17.643Z,33.10
2023-01-30T12:43:02.940Z,34.47
2023-01-30T12:45:34.730Z,26.88
2023-01-30T12:48:07.629Z,29.23
2023-01-30T12:50:49.589Z,24.83
2023-01-30T12:53:43.214Z,47.57
2023-01-30T12:56:15.657Z,36.40
2023-01-30T12:58:50.555Z,29.07
2023-01-30T13:01:32.756Z,26.77
2023-01-30T13:04:46.960Z,28.73
2023-01-30T13:07:33.241Z,26.53
2023-01-30T13:10:21.266Z,38.43
2023-01-30T13:13:07.178Z,42.67
2023-01-30T13:15:46.097Z,37.50
2023-01-30T13:18:22.197Z,34.40
2023-01-30T13:20:55.201Z,35.27
2023-01-30T13:23:41.538Z,31.77
2023-01-30T13:26:19.641Z,30.57
2023-01-30T13:28:53.345Z,33.30
2023-01-30T13:31:24.866Z,31.50
2023-01-30T13:34:04.621Z,29.20
2023-01-30T13:37:01.082Z,28.80
2023-01-30T13:39:54.243Z,42.53
2023-01-30T13:42:52.674Z,36.83
2023-01-30T13:45:27.169Z,40.23
2023-01-30T13:48:16.883Z,36.15
2023-01-30T13:50:43.562Z,36.83
2023-01-30T13:53:28.292Z,43.57
2023-01-30T13:56:39.606Z,37.58
2023-01-30T13:59:21.746Z,66.57
2023-01-30T14:02:04.182Z,50.93
2023-01-30T14:04:40.278Z,41.20
2023-01-30T14:07:13.102Z,34.40
2023-01-30T14:09:46.822Z,41.47
2023-01-30T14:12:20.248Z,40.10
2023-01-30T14:15:04.308Z,35.93
2023-01-30T14:17:31.259Z,63.17
2023-01-30T14:20:01.779Z,84.87
2023-01-30T14:22:56.635Z,77.57
2023-01-30T14:25:23.300Z,94.07
2023-01-30T14:27:53.111Z,56.90
2023-01-30T14:30:45.606Z,69.43
2023-01-30T14:33:21.520Z,71.77
2023-01-30T14:35:54.275Z,68.20
2023-01-30T14:38:22.300Z,41.63
2023-01-30T14:41:23.865Z,31.27
2023-01-30T14:43:54.381Z,43.47
2023-01-30T14:46:21.334Z,34.97
2023-01-30T14:48:50.096Z,43.10
2023-01-30T14:51:34.722Z,54.93
2023-01-30T14:54:14.654Z,27.65
2023-01-30T14:57:16.039Z,46.47
2023-01-30T14:59:45.778Z,58.57
2023-01-30T15:02:12.538Z,45.33
2023-01-30T15:04:50.550Z,35.73
2023-01-30T15:07:26.395Z,44.03
2023-01-30T15:10:00.467Z,55.10
2023-01-30T15:12:43.023Z,40.47
2023-01-30T15:15:38.973Z,39.57
2023-01-30T15:18:31.757Z,34.80
2023-01-30T15:21:41.742Z,39.60
2023-01-30T15:24:44.744Z,41.40
2023-01-30T15:27:31.753Z,40.17
2023-01-30T15:30:45.432Z,62.90
2023-01-30T15:33:22.937Z,33.23
2023-01-30T15:35:56.439Z,41.08
2023-01-30T15:38:31.865Z,45.80
2023-01-30T15:41:03.118Z,56.87
2023-01-30T15:44:12.029Z,54.73
2023-01-30T15:46:48.524Z,53.60
2023-01-30T15:49:40.297Z,62.37
2023-01-30T15:52:16.195Z,46.27
2023-01-30T15:54:52.401Z,46.13
2023-01-30T15:57:38.604Z,62.23
2023-01-30T16:00:12.070Z,61.83
2023-01-30T16:02:38.973Z,76.40
2023-01-30T16:05:13.492Z,57.73
2023-01-30T16:07:40.246Z,54.97
2023-01-30T16:10:19.648Z,54.40
2023-01-30T16:12:47.939Z,61.30
2023-01-30T16:15:31.002Z,84.07
2023-01-30T16:18:06.981Z,109.33
2023-01-30T16:20:58.902Z,52.33
2023-01-30T16:23:52.949Z,58.93
2023-01-30T16:26:21.978Z,53.53
2023-01-30T16:29:00.729Z,48.83
2023-01-30T16:31:32.862Z,54.07
2023-01-30T16:34:00.450Z,59.33
2023-01-30T16:36:27.125Z,59.27
2023-01-30T16:38:55.330Z,50.97
2023-01-30T16:41:40.311Z,47.30
2023-01-30T16:44:20.794Z,57.92
2023-01-30T16:47:01.136Z,67.03
2023-01-30T16:49:39.056Z,56.23
2023-01-30T16:52:31.504Z,49.23
2023-01-30T16:55:00.938Z,50.57
2023-01-30T16:57:43.839Z,57.53
2023-01-30T17:00:31.993Z,57.13
2023-01-30T17:03:01.974Z,54.07
2023-01-30T17:05:40.933Z,55.67
2023-01-30T17:08:33.242Z,59.17
2023-01-30T17:11:01.544Z,61.20
2023-01-30T17:13:44.743Z,58.87
2023-01-30T17:16:23.494Z,51.13
2023-01-30T17:18:53.962Z,47.43
2023-01-30T17:21:23.349Z,41.47
2023-01-30T17:24:02.805Z,45.67
2023-01-30T17:26:30.450Z,54.07
2023-01-30T17:28:57.355Z,44.93
2023-01-30T17:31:24.183Z,54.57
2023-01-30T17:33:50.878Z,41.53
2023-01-30T17:36:24.365Z,48.20
2023-01-30T17:38:51.674Z,43.67
2023-01-30T17:41:26.285Z,40.40
2023-01-30T17:46:23.538Z,47.77
2023-01-30T17:48:51.882Z,48.40
2023-01-30T17:51:18.587Z,43.33
2023-01-30T17:53:45.342Z,48.10
2023-01-30T17:56:19.647Z,50.93
2023-01-30T17:58:46.380Z,45.53
2023-01-30T18:01:16.229Z,44.27
2023-01-30T18:03:44.873Z,49.13
2023-01-30T18:06:14.387Z,51.60
2023-01-30T18:08:41.835Z,51.63
2023-01-30T18:11:11.792Z,52.33
2023-01-30T18:13:47.921Z,56.33
2023-01-30T18:16:23.465Z,60.60
2023-01-30T18:18:51.285Z,62.20
2023-01-30T18:21:18.282Z,79.93
2023-01-30T18:23:44.982Z,126.77
2023-01-30T18:26:12.863Z,116.77
2023-01-30T18:28:39.911Z,106.37
2023-01-30T18:31:07.019Z,101.33
2023-01-30T18:33:34.250Z,88.47
2023-01-30T18:36:12.745Z,77.70
2023-01-30T18:38:39.494Z,73.00
2023-01-30T18:41:17.919Z,78.63
2023-01-30T18:43:48.240Z,79.63
2023-01-30T18:46:18.840Z,106.90
2023-01-30T18:48:46.694Z,89.20
2023-01-30T18:51:16.142Z,93.63
2023-01-30T18:53:43.649Z,106.53
2023-01-30T18:56:15.575Z,86.23
2023-01-30T18:58:42.837Z,132.47
2023-01-30T19:01:17.562Z,95.33
2023-01-30T19:03:44.699Z,103.57
2023-01-30T19:06:18.747Z,99.97
2023-01-30T19:08:45.843Z,72.93
2023-01-30T19:11:33.869Z,69.00
2023-01-30T19:14:00.687Z,69.70
2023-01-30T19:16:29.721Z,73.37
2023-01-30T19:18:56.785Z,94.23
2023-01-30T19:21:24.690Z,124.47
2023-01-30T19:23:51.851Z,81.70
2023-01-30T19:26:21.369Z,77.73
2023-01-30T19:28:50.079Z,67.17
2023-01-30T19:31:19.092Z,62.83
2023-01-30T19:33:48.406Z,84.73
2023-01-30T19:36:19.185Z,99.07
2023-01-30T19:38:47.426Z,117.93
2023-01-30T19:41:24.438Z,89.63
2023-01-30T19:43:52.660Z,84.67
2023-01-30T19:46:19.751Z,81.10
2023-01-30T19:48:47.640Z,73.37
2023-01-30T19:51:17.132Z,62.97
2023-01-30T19:53:45.652Z,69.00
2023-01-30T19:56:13.563Z,78.30
2023-01-30T19:58:40.891Z,81.43
2023-01-30T20:01:10.127Z,76.10
2023-01-30T20:03:37.836Z,73.03
2023-01-30T20:06:07.315Z,66.43
2023-01-30T20:08:36.476Z,64.00
2023-01-30T20:11:06.279Z,55.07
2023-01-30T20:13:38.882Z,58.53
2023-01-30T20:16:11.864Z,68.30
2023-01-30T20:18:40.233Z,81.70
2023-01-30T20:21:19.843Z,84.80
2023-01-30T20:23:47.782Z,99.10
2023-01-30T20:26:17.471Z,90.50
2023-01-30T20:28:45.058Z,78.17
2023-01-30T20:31:20.418Z,71.60
2023-01-30T20:33:47.587Z,72.27
2023-01-30T20:36:18.716Z,68.23
2023-01-30T20:38:49.098Z,105.63
2023-01-30T20:41:18.924Z,73.03
2023-01-30T20:43:49.522Z,76.43
2023-01-30T20:46:41.644Z,89.23
2023-01-30T20:49:17.192Z,103.23
2023-01-30T20:51:44.516Z,102.77
2023-01-30T20:54:12.976Z,146.87
2023-01-30T20:56:45.753Z,107.63
2023-01-30T20:59:15.842Z,110.60
2023-01-30T21:01:43.257Z,91.23
2023-01-30T21:04:15.708Z,140.60
2023-01-30T21:06:45.688Z,109.60
2023-01-30T21:09:19.264Z,148.47
2023-01-30T21:11:46.721Z,175.70
2023-01-30T21:14:14.143Z,103.73
2023-01-30T21:16:41.160Z,110.57
2023-01-30T21:19:11.241Z,84.80
2023-01-30T21:22:04.538Z,192.10
2023-01-30T21:24:31.260Z,111.83
2023-01-30T21:26:58.205Z,96.33
2023-01-30T21:29:27.304Z,94.47
2023-01-30T21:31:55.671Z,123.93
2023-01-30T21:34:22.950Z,235.40
2023-01-30T21:37:08.089Z,104.40
2023-01-30T21:39:53.465Z,132.40
2023-01-30T21:42:40.490Z,95.67
2023-01-30T21:45:07.815Z,142.97
2023-01-30T21:47:34.524Z,89.63
2023-01-30T21:50:01.320Z,65.77
2023-01-30T21:52:27.981Z,63.77
2023-01-30T21:54:54.760Z,107.73
2023-01-30T21:57:21.449Z,81.47
2023-01-30T21:59:48.139Z,66.53
2023-01-30T22:02:14.837Z,90.27
2023-01-30T22:04:41.550Z,91.33
2023-01-30T22:07:08.337Z,72.87
2023-01-30T22:09:35.044Z,77.07
2023-01-30T22:12:01.750Z,84.20
2023-01-30T22:14:28.567Z,79.73
2023-01-30T22:16:55.256Z,72.60
2023-01-30T22:19:21.888Z,59.87
2023-01-30T22:21:48.586Z,50.30
2023-01-30T22:24:15.392Z,55.60
2023-01-30T22:26:42.320Z,54.90
2023-01-30T22:29:09.444Z,66.10
2023-01-30T22:31:38.726Z,81.00
2023-01-30T22:34:06.485Z,72.27
2023-01-30T22:36:34.830Z,74.27
2023-01-30T22:39:02.712Z,79.43
2023-01-30T22:41:32.527Z,79.10
2023-01-30T22:43:59.919Z,76.40
2023-01-30T22:46:35.234Z,75.97
2023-01-30T22:49:03.971Z,78.20
2023-01-30T22:51:33.126Z,74.17
2023-01-30T22:54:09.191Z,69.73
2023-01-30T22:56:38.605Z,75.20
2023-01-30T22:59:06.706Z,86.33
2023-01-30T23:01:37.090Z,89.63
2023-01-30T23:04:11.546Z,73.63
2023-01-30T23:06:39.264Z,62.10
2023-01-30T23:09:08.476Z,66.70
2023-01-30T23:11:39.188Z,80.27
2023-01-30T23:14:14.453Z,65.37
2023-01-30T23:16:43.702Z,67.33
2023-01-30T23:19:12.637Z,67.53
2023-01-30T23:21:45.395Z,79.83
2023-01-30T23:24:17.000Z,80.22
2023-01-30T23:26:46.323Z,80.57
2023-01-30T23:29:16.223Z,72.23
2023-01-30T23:31:44.577Z,82.57
2023-01-30T23:34:17.719Z,57.73
2023-01-30T23:36:45.271Z,45.40
2023-01-30T23:39:13.578Z,61.00
2023-01-30T23:41:41.526Z,67.93
2023-01-30T23:44:09.086Z,88.53
2023-01-30T23:46:42.395Z,76.00
2023-01-30T23:49:12.124Z,64.83
2023-01-30T23:51:40.903Z,50.33
2023-01-30T23:54:08.798Z,50.13
2023-01-30T23:56:37.969Z,39.20
2023-01-30T23:59:05.380Z,37.73
